CPA593 VVNB-VHHX
Flight info
| Callsign | CPA593 |
|---|---|
| Flight time | 1h 19m |
| Altitude | 33000 |
| Route | PHUTA2A PHUTA DCT VDO/K0893S1010 DCT ALEKI DCT UDUTI DCT BOKAT DCT LATOP DCT TAMOT |
| Aircraft | B77W/H-SDE1E2E3FGHIJ2J3J4J5M1RWXY/LB1D1 |
Departure
| Time | 2026-04-28 18:01 |
|---|---|
| Airport | Noi Bai International Airport (VVNB) |
Arrival
| Time | 2026-04-28 19:20 |
|---|---|
| Airport | Hong Kong International Airport Kai Tak (VHHX) |
| Time | Latitude | Longitude | Altitude | Speed | Heading |
|---|---|---|---|---|---|
| 2026-04-28 17:46 | 21.21769 | 105.79781 | 54 ft | 0 kts | 197° |
| 2026-04-28 17:52 | 21.21774 | 105.79783 | 54 ft | 2 kts | 197° |
| 2026-04-28 17:53 | 21.21789 | 105.79787 | 54 ft | 2 kts | 197° |
| 2026-04-28 17:53 | 21.21804 | 105.79792 | 54 ft | 2 kts | 197° |
| 2026-04-28 17:53 | 21.21818 | 105.79797 | 54 ft | 2 kts | 203° |
| 2026-04-28 17:53 | 21.21831 | 105.79806 | 54 ft | 2 kts | 224° |
| 2026-04-28 17:54 | 21.21841 | 105.79819 | 54 ft | 2 kts | 240° |
| 2026-04-28 17:54 | 21.21847 | 105.79833 | 54 ft | 2 kts | 257° |
| 2026-04-28 17:54 | 21.21849 | 105.79849 | 54 ft | 2 kts | 273° |
| 2026-04-28 17:54 | 21.21847 | 105.79862 | 54 ft | 0 kts | 287° |
| 2026-04-28 17:55 | 21.21846 | 105.79865 | 54 ft | 0 kts | 288° |
| 2026-04-28 17:56 | 21.21848 | 105.79861 | 54 ft | 3 kts | 288° |
| 2026-04-28 17:56 | 21.21865 | 105.79802 | 54 ft | 11 kts | 288° |
| 2026-04-28 17:57 | 21.21895 | 105.79703 | 54 ft | 15 kts | 287° |
| 2026-04-28 17:57 | 21.21931 | 105.79575 | 54 ft | 19 kts | 287° |
| 2026-04-28 17:57 | 21.21973 | 105.79430 | 54 ft | 20 kts | 288° |
| 2026-04-28 17:57 | 21.22013 | 105.79293 | 54 ft | 18 kts | 287° |
| 2026-04-28 17:58 | 21.22047 | 105.79171 | 54 ft | 16 kts | 287° |
| 2026-04-28 17:58 | 21.22075 | 105.79073 | 54 ft | 19 kts | 287° |
| 2026-04-28 17:58 | 21.22120 | 105.78922 | 54 ft | 22 kts | 288° |
| 2026-04-28 17:58 | 21.22169 | 105.78750 | 54 ft | 23 kts | 288° |
| 2026-04-28 17:59 | 21.22243 | 105.78607 | 54 ft | 20 kts | 339° |
| 2026-04-28 17:59 | 21.22379 | 105.78619 | 54 ft | 17 kts | 17° |
| 2026-04-28 17:59 | 21.22462 | 105.78662 | 54 ft | 7 kts | 92° |
| 2026-04-28 17:59 | 21.22456 | 105.78683 | 54 ft | 0 kts | 108° |
| 2026-04-28 18:00 | 21.22437 | 105.78742 | 54 ft | 31 kts | 108° |
| 2026-04-28 18:00 | 21.22297 | 105.79230 | 57 ft | 101 kts | 107° |
| 2026-04-28 18:00 | 21.22019 | 105.80183 | 55 ft | 161 kts | 107° |
| 2026-04-28 18:00 | 21.21643 | 105.81451 | 426 ft | 179 kts | 109° |
| 2026-04-28 18:01 | 21.21265 | 105.82764 | 1118 ft | 188 kts | 109° |
| 2026-04-28 18:01 | 21.20875 | 105.84113 | 1711 ft | 190 kts | 109° |
| 2026-04-28 18:01 | 21.20465 | 105.85525 | 2198 ft | 198 kts | 108° |
| 2026-04-28 18:01 | 21.20041 | 105.86983 | 2696 ft | 204 kts | 108° |
| 2026-04-28 18:02 | 21.19605 | 105.88481 | 3186 ft | 211 kts | 107° |
| 2026-04-28 18:02 | 21.19140 | 105.90086 | 3487 ft | 231 kts | 107° |
| 2026-04-28 18:02 | 21.18635 | 105.91829 | 3817 ft | 249 kts | 108° |
| 2026-04-28 18:02 | 21.18095 | 105.93692 | 4184 ft | 267 kts | 108° |
| 2026-04-28 18:03 | 21.17510 | 105.95706 | 4647 ft | 282 kts | 109° |
| 2026-04-28 18:03 | 21.16600 | 105.97581 | 5228 ft | 285 kts | 134° |
| 2026-04-28 18:03 | 21.15056 | 105.98965 | 5873 ft | 288 kts | 144° |
| 2026-04-28 18:03 | 21.13703 | 106.00637 | 6519 ft | 296 kts | 124° |
| 2026-04-28 18:04 | 21.12686 | 106.02612 | 7249 ft | 299 kts | 118° |
| 2026-04-28 18:04 | 21.11743 | 106.04671 | 7839 ft | 306 kts | 117° |
| 2026-04-28 18:04 | 21.10805 | 106.06753 | 8510 ft | 308 kts | 117° |
| 2026-04-28 18:04 | 21.09854 | 106.08862 | 9126 ft | 313 kts | 117° |
| 2026-04-28 18:05 | 21.08880 | 106.11018 | 9750 ft | 318 kts | 117° |
| 2026-04-28 18:05 | 21.08213 | 106.12492 | 10162 ft | 321 kts | 116° |
| 2026-04-28 18:05 | 21.06863 | 106.15472 | 10654 ft | 341 kts | 116° |
| 2026-04-28 18:05 | 21.05785 | 106.17851 | 11007 ft | 358 kts | 116° |
| 2026-04-28 18:06 | 21.04656 | 106.20343 | 11373 ft | 374 kts | 116° |
| 2026-04-28 18:06 | 21.03468 | 106.22964 | 11797 ft | 389 kts | 116° |
| 2026-04-28 18:06 | 21.02250 | 106.25648 | 12238 ft | 404 kts | 116° |
| 2026-04-28 18:06 | 21.00983 | 106.28439 | 12930 ft | 411 kts | 115° |
| 2026-04-28 18:07 | 20.99717 | 106.31227 | 13685 ft | 416 kts | 116° |
| 2026-04-28 18:07 | 20.98417 | 106.34090 | 14507 ft | 421 kts | 116° |
| 2026-04-28 18:07 | 20.97111 | 106.36963 | 15390 ft | 425 kts | 116° |
| 2026-04-28 18:07 | 20.95806 | 106.39831 | 16227 ft | 430 kts | 117° |
| 2026-04-28 18:08 | 20.94951 | 106.41791 | 16779 ft | 434 kts | 113° |
| 2026-04-28 18:08 | 20.94028 | 106.44938 | 17580 ft | 440 kts | 103° |
| 2026-04-28 18:08 | 20.93622 | 106.48241 | 18333 ft | 446 kts | 92° |
| 2026-04-28 18:08 | 20.93763 | 106.51617 | 19074 ft | 451 kts | 82° |
| 2026-04-28 18:09 | 20.94281 | 106.55011 | 19835 ft | 455 kts | 79° |
| 2026-04-28 18:09 | 20.94837 | 106.58392 | 20570 ft | 459 kts | 79° |
| 2026-04-28 18:09 | 20.95394 | 106.61821 | 21238 ft | 464 kts | 79° |
| 2026-04-28 18:09 | 20.95957 | 106.65329 | 21964 ft | 467 kts | 79° |
| 2026-04-28 18:10 | 20.96509 | 106.68796 | 22628 ft | 472 kts | 79° |
| 2026-04-28 18:10 | 20.97071 | 106.72354 | 23223 ft | 478 kts | 80° |
| 2026-04-28 18:10 | 20.97630 | 106.75915 | 23828 ft | 483 kts | 80° |
| 2026-04-28 18:10 | 20.98196 | 106.79530 | 24550 ft | 485 kts | 80° |
| 2026-04-28 18:11 | 20.98758 | 106.83133 | 25232 ft | 488 kts | 80° |
| 2026-04-28 18:11 | 20.99328 | 106.86799 | 25844 ft | 493 kts | 81° |
| 2026-04-28 18:11 | 20.99901 | 106.90498 | 26459 ft | 497 kts | 81° |
| 2026-04-28 18:11 | 21.00481 | 106.94243 | 27147 ft | 499 kts | 81° |
| 2026-04-28 18:12 | 21.01056 | 106.97970 | 27779 ft | 502 kts | 81° |
| 2026-04-28 18:12 | 21.01641 | 107.01761 | 28313 ft | 508 kts | 81° |
| 2026-04-28 18:12 | 21.02221 | 107.05533 | 28845 ft | 512 kts | 81° |
| 2026-04-28 18:12 | 21.02809 | 107.09359 | 29484 ft | 515 kts | 81° |
| 2026-04-28 18:13 | 21.03394 | 107.13178 | 30329 ft | 512 kts | 81° |
| 2026-04-28 18:13 | 21.03982 | 107.17017 | 31351 ft | 504 kts | 80° |
| 2026-04-28 18:13 | 21.04549 | 107.20725 | 32310 ft | 497 kts | 80° |
| 2026-04-28 18:13 | 21.05119 | 107.24459 | 32779 ft | 499 kts | 80° |
| 2026-04-28 18:14 | 21.06248 | 107.31872 | 32848 ft | 497 kts | 80° |
| 2026-04-28 18:14 | 21.07649 | 107.39159 | 32841 ft | 492 kts | 70° |
| 2026-04-28 18:15 | 21.10534 | 107.45966 | 32848 ft | 493 kts | 62° |
| 2026-04-28 18:15 | 21.13599 | 107.52585 | 32848 ft | 491 kts | 62° |
| 2026-04-28 18:16 | 21.16679 | 107.59253 | 32831 ft | 492 kts | 62° |
| 2026-04-28 18:16 | 21.19747 | 107.65906 | 32832 ft | 491 kts | 62° |
| 2026-04-28 18:17 | 21.22834 | 107.72613 | 32827 ft | 491 kts | 62° |
| 2026-04-28 18:17 | 21.25898 | 107.79280 | 32821 ft | 491 kts | 63° |
| 2026-04-28 18:18 | 21.28644 | 107.85265 | 32823 ft | 490 kts | 62° |
| 2026-04-28 18:18 | 21.31195 | 107.90828 | 32820 ft | 489 kts | 62° |
| 2026-04-28 18:19 | 21.34733 | 107.98557 | 32826 ft | 489 kts | 62° |
| 2026-04-28 18:19 | 21.37769 | 108.05196 | 32827 ft | 490 kts | 62° |
| 2026-04-28 18:20 | 21.40826 | 108.11893 | 32823 ft | 490 kts | 62° |
| 2026-04-28 18:20 | 21.43880 | 108.18591 | 32830 ft | 489 kts | 62° |
| 2026-04-28 18:21 | 21.46920 | 108.25266 | 32829 ft | 490 kts | 62° |
| 2026-04-28 18:21 | 21.49950 | 108.31927 | 32823 ft | 492 kts | 62° |
| 2026-04-28 18:22 | 21.53012 | 108.38668 | 32822 ft | 491 kts | 62° |
| 2026-04-28 18:22 | 21.56043 | 108.45350 | 32822 ft | 491 kts | 62° |
| 2026-04-28 18:23 | 21.59084 | 108.52061 | 32818 ft | 493 kts | 62° |
| 2026-04-28 18:23 | 21.62131 | 108.58795 | 32822 ft | 493 kts | 62° |
| 2026-04-28 18:24 | 21.64661 | 108.64394 | 32822 ft | 490 kts | 62° |
| 2026-04-28 18:24 | 21.68198 | 108.72231 | 32823 ft | 490 kts | 63° |
| 2026-04-28 18:25 | 21.71211 | 108.78917 | 32825 ft | 489 kts | 63° |
| 2026-04-28 18:26 | 21.75762 | 108.89031 | 32827 ft | 489 kts | 63° |
| 2026-04-28 18:26 | 21.78760 | 108.95706 | 32826 ft | 489 kts | 62° |
| 2026-04-28 18:27 | 21.81765 | 109.02402 | 32825 ft | 491 kts | 63° |
| 2026-04-28 18:27 | 21.84301 | 109.09322 | 32819 ft | 491 kts | 76° |
| 2026-04-28 18:28 | 21.84943 | 109.15929 | 32824 ft | 493 kts | 88° |
| 2026-04-28 18:28 | 21.85037 | 109.23457 | 32820 ft | 495 kts | 88° |
| 2026-04-28 18:29 | 21.85106 | 109.30981 | 32823 ft | 494 kts | 88° |
| 2026-04-28 18:29 | 21.85167 | 109.38531 | 32820 ft | 496 kts | 88° |
| 2026-04-28 18:30 | 21.85221 | 109.46060 | 32818 ft | 495 kts | 88° |
| 2026-04-28 18:30 | 21.85270 | 109.53586 | 32815 ft | 496 kts | 88° |
| 2026-04-28 18:31 | 21.85315 | 109.61098 | 32814 ft | 496 kts | 88° |
| 2026-04-28 18:31 | 21.85356 | 109.68656 | 32811 ft | 498 kts | 89° |
| 2026-04-28 18:32 | 21.85394 | 109.76216 | 32814 ft | 497 kts | 89° |
| 2026-04-28 18:32 | 21.85428 | 109.83784 | 32813 ft | 496 kts | 89° |
| 2026-04-28 18:33 | 21.85459 | 109.91335 | 32811 ft | 495 kts | 89° |
| 2026-04-28 18:33 | 21.85486 | 109.98834 | 32811 ft | 499 kts | 89° |
| 2026-04-28 18:34 | 21.85510 | 110.06447 | 32814 ft | 500 kts | 89° |
| 2026-04-28 18:34 | 21.85530 | 110.14056 | 32816 ft | 501 kts | 89° |
| 2026-04-28 18:35 | 21.85547 | 110.21664 | 32815 ft | 501 kts | 89° |
| 2026-04-28 18:35 | 21.85561 | 110.29284 | 32820 ft | 503 kts | 89° |
| 2026-04-28 18:36 | 21.85570 | 110.36935 | 32821 ft | 502 kts | 89° |
| 2026-04-28 18:36 | 21.85577 | 110.44613 | 32824 ft | 503 kts | 89° |
| 2026-04-28 18:37 | 21.85580 | 110.52248 | 32827 ft | 505 kts | 89° |
| 2026-04-28 18:37 | 21.85579 | 110.59918 | 32829 ft | 505 kts | 89° |
| 2026-04-28 18:38 | 21.85575 | 110.66788 | 32829 ft | 506 kts | 89° |
| 2026-04-28 18:38 | 21.85568 | 110.74423 | 32826 ft | 507 kts | 89° |
| 2026-04-28 18:39 | 21.85557 | 110.82159 | 32827 ft | 507 kts | 89° |
| 2026-04-28 18:39 | 21.85543 | 110.89867 | 32827 ft | 507 kts | 90° |
| 2026-04-28 18:40 | 21.85525 | 110.97568 | 32829 ft | 510 kts | 90° |
| 2026-04-28 18:40 | 21.85503 | 111.05351 | 32832 ft | 512 kts | 90° |
| 2026-04-28 18:41 | 21.85477 | 111.13120 | 32835 ft | 511 kts | 90° |
| 2026-04-28 18:41 | 21.85448 | 111.20834 | 32842 ft | 512 kts | 90° |
| 2026-04-28 18:42 | 21.85415 | 111.28635 | 32846 ft | 513 kts | 90° |
| 2026-04-28 18:42 | 21.85378 | 111.36419 | 32839 ft | 513 kts | 90° |
| 2026-04-28 18:43 | 21.85338 | 111.44196 | 32831 ft | 513 kts | 90° |
| 2026-04-28 18:43 | 21.85294 | 111.52002 | 32833 ft | 516 kts | 90° |
| 2026-04-28 18:44 | 21.85246 | 111.59871 | 32835 ft | 518 kts | 90° |
| 2026-04-28 18:44 | 21.85167 | 111.71667 | 32823 ft | 517 kts | 91° |
| 2026-04-28 18:45 | 21.85112 | 111.79237 | 32826 ft | 518 kts | 91° |
| 2026-04-28 18:45 | 21.85051 | 111.87094 | 32830 ft | 518 kts | 91° |
| 2026-04-28 18:46 | 21.85298 | 111.95005 | 32834 ft | 519 kts | 81° |
| 2026-04-28 18:46 | 21.86618 | 112.02586 | 32848 ft | 521 kts | 79° |
| 2026-04-28 18:47 | 21.88020 | 112.10332 | 32854 ft | 521 kts | 79° |
| 2026-04-28 18:47 | 21.89238 | 112.17119 | 32858 ft | 519 kts | 79° |
| 2026-04-28 18:48 | 21.90625 | 112.24888 | 32852 ft | 520 kts | 79° |
| 2026-04-28 18:48 | 21.92000 | 112.32631 | 32855 ft | 520 kts | 79° |
| 2026-04-28 18:49 | 21.93141 | 112.39078 | 32855 ft | 522 kts | 79° |
| 2026-04-28 18:49 | 21.94746 | 112.48177 | 32859 ft | 522 kts | 79° |
| 2026-04-28 18:50 | 21.96118 | 112.55985 | 32861 ft | 523 kts | 79° |
| 2026-04-28 18:50 | 21.97489 | 112.63808 | 32866 ft | 521 kts | 79° |
| 2026-04-28 18:51 | 21.98849 | 112.71594 | 32859 ft | 521 kts | 80° |
| 2026-04-28 18:51 | 22.00203 | 112.79376 | 32858 ft | 522 kts | 81° |
| 2026-04-28 18:52 | 22.00427 | 112.87262 | 32849 ft | 517 kts | 99° |
| 2026-04-28 18:52 | 21.98515 | 112.94782 | 32849 ft | 513 kts | 117° |
| 2026-04-28 18:53 | 21.94663 | 113.01257 | 32845 ft | 503 kts | 136° |
| 2026-04-28 18:53 | 21.89304 | 113.06136 | 32839 ft | 490 kts | 154° |
| 2026-04-28 18:54 | 21.83049 | 113.09062 | 32829 ft | 475 kts | 171° |
| 2026-04-28 18:54 | 21.76522 | 113.10599 | 32836 ft | 474 kts | 172° |
| 2026-04-28 18:55 | 21.71054 | 113.12099 | 32841 ft | 477 kts | 170° |
| 2026-04-28 18:55 | 21.63444 | 113.14459 | 32845 ft | 479 kts | 168° |
| 2026-04-28 18:56 | 21.56981 | 113.16595 | 32843 ft | 478 kts | 168° |
| 2026-04-28 18:56 | 21.53798 | 113.17672 | 32471 ft | 472 kts | 168° |
| 2026-04-28 18:56 | 21.50594 | 113.18764 | 31609 ft | 475 kts | 168° |
| 2026-04-28 18:57 | 21.47375 | 113.19867 | 30735 ft | 478 kts | 167° |
| 2026-04-28 18:57 | 21.44134 | 113.20986 | 30180 ft | 474 kts | 167° |
| 2026-04-28 18:57 | 21.41633 | 113.21854 | 29819 ft | 469 kts | 168° |
| 2026-04-28 18:57 | 21.38472 | 113.22951 | 29321 ft | 464 kts | 167° |
| 2026-04-28 18:58 | 21.35353 | 113.24035 | 28793 ft | 460 kts | 168° |
| 2026-04-28 18:58 | 21.32270 | 113.25107 | 28276 ft | 456 kts | 167° |
| 2026-04-28 18:58 | 21.29182 | 113.26182 | 27752 ft | 452 kts | 167° |
| 2026-04-28 18:58 | 21.26230 | 113.27483 | 27375 ft | 458 kts | 158° |
| 2026-04-28 18:59 | 21.23531 | 113.29521 | 27275 ft | 477 kts | 140° |
| 2026-04-28 18:59 | 21.21386 | 113.32398 | 27258 ft | 486 kts | 123° |
| 2026-04-28 18:59 | 21.20037 | 113.35753 | 26937 ft | 484 kts | 108° |
| 2026-04-28 18:59 | 21.19526 | 113.39368 | 26083 ft | 494 kts | 92° |
| 2026-04-28 19:00 | 21.19914 | 113.43077 | 24971 ft | 506 kts | 76° |
| 2026-04-28 19:00 | 21.21237 | 113.46705 | 23650 ft | 519 kts | 60° |
| 2026-04-28 19:00 | 21.23434 | 113.49879 | 22433 ft | 525 kts | 43° |
| 2026-04-28 19:00 | 21.26243 | 113.52319 | 21555 ft | 509 kts | 33° |
| 2026-04-28 19:01 | 21.29051 | 113.54675 | 20978 ft | 491 kts | 38° |
| 2026-04-28 19:01 | 21.31722 | 113.56944 | 20700 ft | 475 kts | 35° |
| 2026-04-28 19:01 | 21.34329 | 113.59086 | 20620 ft | 459 kts | 35° |
| 2026-04-28 19:01 | 21.36882 | 113.61179 | 20449 ft | 447 kts | 35° |
| 2026-04-28 19:02 | 21.39390 | 113.63235 | 19947 ft | 444 kts | 35° |
| 2026-04-28 19:02 | 21.41883 | 113.65277 | 19359 ft | 444 kts | 35° |
| 2026-04-28 19:02 | 21.44395 | 113.67277 | 18755 ft | 441 kts | 31° |
| 2026-04-28 19:02 | 21.47145 | 113.68876 | 18167 ft | 436 kts | 21° |
| 2026-04-28 19:03 | 21.49939 | 113.70171 | 17603 ft | 434 kts | 20° |
| 2026-04-28 19:03 | 21.52766 | 113.71453 | 17020 ft | 432 kts | 20° |
| 2026-04-28 19:03 | 21.55570 | 113.72725 | 16444 ft | 430 kts | 20° |
| 2026-04-28 19:03 | 21.58394 | 113.74007 | 15864 ft | 428 kts | 20° |
| 2026-04-28 19:04 | 21.61168 | 113.75266 | 15290 ft | 426 kts | 20° |
| 2026-04-28 19:04 | 21.63939 | 113.76524 | 14708 ft | 424 kts | 20° |
| 2026-04-28 19:04 | 21.66699 | 113.77779 | 14337 ft | 415 kts | 20° |
| 2026-04-28 19:04 | 21.69370 | 113.78996 | 14237 ft | 400 kts | 20° |
| 2026-04-28 19:05 | 21.71927 | 113.80160 | 14112 ft | 387 kts | 20° |
| 2026-04-28 19:05 | 21.74404 | 113.81287 | 13954 ft | 375 kts | 20° |
| 2026-04-28 19:05 | 21.76836 | 113.82395 | 13781 ft | 365 kts | 20° |
| 2026-04-28 19:05 | 21.79224 | 113.83482 | 13424 ft | 361 kts | 20° |
| 2026-04-28 19:06 | 21.81549 | 113.84540 | 13058 ft | 357 kts | 20° |
| 2026-04-28 19:06 | 21.83109 | 113.85250 | 12824 ft | 355 kts | 20° |
| 2026-04-28 19:06 | 21.86162 | 113.86642 | 12377 ft | 349 kts | 20° |
| 2026-04-28 19:06 | 21.88435 | 113.87678 | 12063 ft | 345 kts | 20° |
| 2026-04-28 19:07 | 21.90660 | 113.88693 | 11754 ft | 340 kts | 20° |
| 2026-04-28 19:07 | 21.92328 | 113.89454 | 11550 ft | 336 kts | 20° |
| 2026-04-28 19:07 | 21.94495 | 113.90443 | 11270 ft | 331 kts | 20° |
| 2026-04-28 19:07 | 21.96664 | 113.91434 | 10964 ft | 327 kts | 20° |
| 2026-04-28 19:08 | 21.98778 | 113.92399 | 10663 ft | 323 kts | 20° |
| 2026-04-28 19:08 | 22.00865 | 113.93353 | 10394 ft | 316 kts | 20° |
| 2026-04-28 19:08 | 22.02917 | 113.94291 | 10122 ft | 309 kts | 20° |
| 2026-04-28 19:08 | 22.04892 | 113.95194 | 9905 ft | 301 kts | 20° |
| 2026-04-28 19:09 | 22.06847 | 113.96089 | 9708 ft | 292 kts | 20° |
| 2026-04-28 19:09 | 22.08704 | 113.96939 | 9496 ft | 284 kts | 20° |
| 2026-04-28 19:09 | 22.10551 | 113.97784 | 9265 ft | 276 kts | 20° |
| 2026-04-28 19:09 | 22.12309 | 113.98589 | 9018 ft | 269 kts | 20° |
| 2026-04-28 19:10 | 22.14040 | 113.99381 | 8793 ft | 262 kts | 20° |
| 2026-04-28 19:10 | 22.15745 | 114.00162 | 8571 ft | 254 kts | 20° |
| 2026-04-28 19:10 | 22.17390 | 114.00884 | 8360 ft | 244 kts | 11° |
| 2026-04-28 19:10 | 22.19011 | 114.00946 | 8150 ft | 223 kts | 338° |
| 2026-04-28 19:11 | 22.20299 | 114.00146 | 8004 ft | 202 kts | 308° |
| 2026-04-28 19:11 | 22.21242 | 113.98988 | 7761 ft | 205 kts | 294° |
| 2026-04-28 19:11 | 22.21686 | 113.97525 | 7303 ft | 202 kts | 272° |
| 2026-04-28 19:11 | 22.21726 | 113.95976 | 6981 ft | 199 kts | 265° |
| 2026-04-28 19:12 | 22.21679 | 113.94464 | 6710 ft | 197 kts | 264° |
| 2026-04-28 19:12 | 22.21629 | 113.92984 | 6448 ft | 194 kts | 264° |
| 2026-04-28 19:12 | 22.21579 | 113.91506 | 6186 ft | 191 kts | 264° |
| 2026-04-28 19:12 | 22.21533 | 113.90057 | 5925 ft | 189 kts | 266° |
| 2026-04-28 19:13 | 22.21868 | 113.88686 | 5747 ft | 187 kts | 300° |
| 2026-04-28 19:13 | 22.22911 | 113.87758 | 5626 ft | 204 kts | 335° |
| 2026-04-28 19:13 | 22.24361 | 113.87674 | 5453 ft | 215 kts | 17° |
| 2026-04-28 19:13 | 22.25719 | 113.88416 | 5170 ft | 229 kts | 30° |
| 2026-04-28 19:14 | 22.27110 | 113.89346 | 4895 ft | 227 kts | 32° |
| 2026-04-28 19:14 | 22.28477 | 113.90273 | 4752 ft | 229 kts | 32° |
| 2026-04-28 19:14 | 22.29744 | 113.91337 | 4644 ft | 225 kts | 43° |
| 2026-04-28 19:14 | 22.30878 | 113.92499 | 4536 ft | 214 kts | 50° |
| 2026-04-28 19:15 | 22.31538 | 113.93883 | 4441 ft | 204 kts | 81° |
| 2026-04-28 19:15 | 22.31763 | 113.95472 | 4442 ft | 212 kts | 89° |
| 2026-04-28 19:15 | 22.31884 | 113.97090 | 4203 ft | 218 kts | 90° |
| 2026-04-28 19:15 | 22.31957 | 113.98206 | 3967 ft | 220 kts | 90° |
| 2026-04-28 19:16 | 22.32105 | 114.00474 | 3521 ft | 223 kts | 90° |
| 2026-04-28 19:16 | 22.32217 | 114.02165 | 3205 ft | 223 kts | 90° |
| 2026-04-28 19:16 | 22.32331 | 114.03884 | 2885 ft | 224 kts | 90° |
| 2026-04-28 19:16 | 22.32442 | 114.05576 | 2591 ft | 225 kts | 89° |
| 2026-04-28 19:17 | 22.32554 | 114.07280 | 2274 ft | 226 kts | 89° |
| 2026-04-28 19:17 | 22.32644 | 114.08624 | 2029 ft | 217 kts | 89° |
| 2026-04-28 19:17 | 22.32749 | 114.10221 | 1756 ft | 200 kts | 89° |
| 2026-04-28 19:17 | 22.32844 | 114.11694 | 1505 ft | 187 kts | 90° |
| 2026-04-28 19:18 | 22.32933 | 114.13064 | 1249 ft | 175 kts | 90° |
| 2026-04-28 19:18 | 22.33017 | 114.14387 | 1015 ft | 171 kts | 90° |
| 2026-04-28 19:18 | 22.33099 | 114.15679 | 779 ft | 170 kts | 89° |
| 2026-04-28 19:18 | 22.33196 | 114.16966 | 550 ft | 168 kts | 89° |
| 2026-04-28 19:19 | 22.33169 | 114.18228 | 395 ft | 167 kts | 107° |
| 2026-04-28 19:19 | 22.32531 | 114.19261 | 182 ft | 164 kts | 137° |
| 2026-04-28 19:19 | 22.31749 | 114.20132 | 40 ft | 149 kts | 137° |
| 2026-04-28 19:19 | 22.31133 | 114.20824 | 36 ft | 94 kts | 134° |
| 2026-04-28 19:20 | 22.30843 | 114.21163 | 36 ft | 34 kts | 109° |
| 2026-04-28 19:20 | 22.30849 | 114.21285 | 36 ft | 7 kts | 5° |
| 2026-04-28 19:20 | 22.30901 | 114.21244 | 36 ft | 12 kts | 312° |
| 2026-04-28 19:20 | 22.30969 | 114.21165 | 36 ft | 16 kts | 312° |
| 2026-04-28 19:21 | 22.31058 | 114.21061 | 36 ft | 20 kts | 313° |
| 2026-04-28 19:21 | 22.31169 | 114.20936 | 36 ft | 24 kts | 313° |
| 2026-04-28 19:21 | 22.31296 | 114.20791 | 36 ft | 28 kts | 313° |
| 2026-04-28 19:21 | 22.31440 | 114.20629 | 36 ft | 31 kts | 313° |
| 2026-04-28 19:22 | 22.31591 | 114.20458 | 35 ft | 30 kts | 313° |
| 2026-04-28 19:22 | 22.31688 | 114.20351 | 35 ft | 28 kts | 315° |
| 2026-04-28 19:22 | 22.31867 | 114.20148 | 35 ft | 26 kts | 314° |
| 2026-04-28 19:22 | 22.31990 | 114.20010 | 35 ft | 24 kts | 313° |
| 2026-04-28 19:23 | 22.32108 | 114.19884 | 35 ft | 22 kts | 315° |
| 2026-04-28 19:23 | 22.32214 | 114.19765 | 35 ft | 20 kts | 313° |
| 2026-04-28 19:23 | 22.32311 | 114.19656 | 35 ft | 18 kts | 315° |
| 2026-04-28 19:23 | 22.32405 | 114.19565 | 35 ft | 14 kts | 322° |
| 2026-04-28 19:24 | 22.32486 | 114.19591 | 35 ft | 12 kts | 43° |
| 2026-04-28 19:24 | 22.32546 | 114.19654 | 35 ft | 10 kts | 47° |
| 2026-04-28 19:24 | 22.32588 | 114.19714 | 35 ft | 8 kts | 72° |
| 2026-04-28 19:24 | 22.32589 | 114.19780 | 35 ft | 8 kts | 90° |
| 2026-04-28 19:25 | 22.32589 | 114.19788 | 35 ft | 0 kts | 90° |